Time;durP1;ratioP1;P1;durP2;ratioP2;P2;SDS_P1;SDS_P2;PMS_P1;PMS_P2;Temp;Humidity;BMP_temperature;BMP_pressure;BME280_temperature;BME280_humidity;BME280_pressure;Samples;Min_cycle;Max_cycle;Signal;HPM_P1;HPM_P2
2024/03/16 00:00:34;;;;;;;3.50;2.70;;;17.90;69.40;;;;;;6183918;23;20155;-83
2024/03/16 00:03:00;;;;;;;5.28;3.33;;;17.90;69.30;;;;;;6183922;23;20447;-83
2024/03/16 00:05:27;;;;;;;4.55;2.80;;;17.90;69.40;;;;;;6184558;23;20257;-83
2024/03/16 00:07:53;;;;;;;4.35;2.70;;;17.90;69.50;;;;;;6184770;23;20162;-83
2024/03/16 00:10:20;;;;;;;5.53;3.05;;;17.90;69.50;;;;;;6198326;23;20131;-82
2024/03/16 00:12:46;;;;;;;3.47;2.63;;;17.90;69.40;;;;;;6193495;23;20143;-83
2024/03/16 00:15:11;;;;;;;5.10;3.05;;;17.90;69.60;;;;;;6183468;23;20481;-84
2024/03/16 00:17:42;;;;;;;4.00;2.80;;;17.90;69.50;;;;;;6183573;23;20147;-83
2024/03/16 00:20:11;;;;;;;3.28;2.50;;;17.90;69.60;;;;;;6133368;23;20162;-84
2024/03/16 00:22:37;;;;;;;3.83;3.03;;;17.90;69.60;;;;;;6074408;23;20701;-84
2024/03/16 00:25:04;;;;;;;4.10;2.80;;;17.90;69.20;;;;;;6098631;23;20152;-84
2024/03/16 00:27:30;;;;;;;4.45;3.00;;;17.90;69.30;;;;;;6074326;23;20658;-84
2024/03/16 00:29:56;;;;;;;4.82;2.60;;;17.90;69.50;;;;;;6123134;23;20148;-84
2024/03/16 00:32:22;;;;;;;4.13;2.90;;;17.90;69.60;;;;;;6122896;23;20310;-84
2024/03/16 00:34:49;;;;;;;3.72;2.67;;;17.80;70.20;;;;;;6123066;23;20156;-84
2024/03/16 00:37:15;;;;;;;4.47;2.97;;;17.80;70.00;;;;;;6098495;23;20156;-84
2024/03/16 00:39:42;;;;;;;4.43;3.10;;;17.80;70.00;;;;;;6122758;23;20166;-84
2024/03/16 00:42:09;;;;;;;4.18;2.72;;;17.80;70.10;;;;;;6122817;23;20507;-83
2024/03/16 00:44:39;;;;;;;4.13;2.72;;;17.80;69.70;;;;;;6098934;23;20160;-83
2024/03/16 00:47:05;;;;;;;3.60;2.90;;;17.80;69.70;;;;;;6098341;23;20607;-83
2024/03/16 00:49:31;;;;;;;5.45;3.00;;;17.80;69.60;;;;;;6098888;23;20160;-84
2024/03/16 00:51:58;;;;;;;4.80;2.70;;;17.80;69.60;;;;;;6098799;23;20203;-84
2024/03/16 00:54:24;;;;;;;4.28;2.72;;;17.90;69.70;;;;;;6194482;23;20177;-84
2024/03/16 00:56:51;;;;;;;3.83;2.78;;;17.80;69.80;;;;;;6186826;23;20216;-84
2024/03/16 00:59:18;;;;;;;2.97;2.42;;;17.80;69.90;;;;;;6186770;23;20134;-84
2024/03/16 01:01:44;;;;;;;4.07;2.90;;;17.80;69.70;;;;;;6160374;23;20157;-84
2024/03/16 01:04:10;;;;;;;3.92;3.05;;;17.80;69.80;;;;;;6187053;23;20139;-84
2024/03/16 01:06:36;;;;;;;4.15;2.80;;;17.80;69.60;;;;;;6160641;23;20151;-84
2024/03/16 01:09:03;;;;;;;5.60;2.90;;;17.80;69.60;;;;;;6185266;23;20171;-83
2024/03/16 01:11:29;;;;;;;4.15;3.00;;;17.80;69.80;;;;;;6186505;23;20213;-84
2024/03/16 01:13:54;;;;;;;3.60;2.78;;;17.80;70.20;;;;;;6185455;23;20135;-83
2024/03/16 01:16:20;;;;;;;3.80;2.90;;;17.70;70.00;;;;;;6186568;23;20139;-83
2024/03/16 01:18:46;;;;;;;4.35;2.85;;;17.70;70.00;;;;;;6185377;23;20139;-84
2024/03/16 01:21:12;;;;;;;3.97;2.72;;;17.80;70.10;;;;;;6160237;23;20177;-84
2024/03/16 01:23:38;;;;;;;2.75;2.40;;;17.80;69.60;;;;;;6185175;23;20596;-83
2024/03/16 01:26:05;;;;;;;4.40;2.90;;;17.80;69.90;;;;;;6185411;23;20162;-84
2024/03/16 01:28:31;;;;;;;3.63;2.80;;;17.80;69.80;;;;;;6184901;23;20159;-84
2024/03/16 01:30:57;;;;;;;4.30;2.97;;;17.80;70.00;;;;;;6185244;23;20140;-84
2024/03/16 01:33:24;;;;;;;4.40;2.97;;;17.80;69.80;;;;;;6184704;23;20223;-84
2024/03/16 01:35:50;;;;;;;5.32;3.00;;;17.80;69.60;;;;;;6160201;23;20151;-84
2024/03/16 01:38:19;;;;;;;4.07;2.80;;;17.70;69.80;;;;;;6209850;23;20180;-83
2024/03/16 01:40:45;;;;;;;4.13;3.30;;;17.80;69.80;;;;;;6184649;23;20154;-84
2024/03/16 01:43:12;;;;;;;4.25;3.10;;;17.80;69.90;;;;;;6184827;23;20636;-84
2024/03/16 01:45:40;;;;;;;4.05;2.88;;;17.80;69.90;;;;;;6184845;23;20131;-83
2024/03/16 01:48:09;;;;;;;4.57;2.83;;;17.70;69.80;;;;;;6159994;23;20174;-84
2024/03/16 01:50:37;;;;;;;3.90;3.10;;;17.70;69.70;;;;;;6186361;23;20620;-84
2024/03/16 01:53:04;;;;;;;3.65;2.90;;;17.80;69.70;;;;;;6185406;23;20578;-84
2024/03/16 01:55:32;;;;;;;3.50;2.80;;;17.80;70.20;;;;;;6184844;23;20181;-83
2024/03/16 01:57:57;;;;;;;4.05;2.85;;;17.70;70.20;;;;;;6185132;23;20166;-83
2024/03/16 02:00:23;;;;;;;4.72;3.13;;;17.70;69.70;;;;;;6184687;23;20131;-84
2024/03/16 02:02:49;;;;;;;4.40;2.78;;;17.80;69.80;;;;;;6159863;23;20158;-84
2024/03/16 02:05:15;;;;;;;3.53;2.92;;;17.80;69.50;;;;;;6184277;23;20213;-84
2024/03/16 02:07:44;;;;;;;3.88;2.88;;;17.80;69.80;;;;;;6160005;23;20175;-85
2024/03/16 02:10:10;;;;;;;4.97;3.03;;;17.70;69.40;;;;;;6159792;23;20183;-83
2024/03/16 02:12:35;;;;;;;3.92;3.05;;;17.80;70.00;;;;;;6209631;23;20143;-84
2024/03/16 02:15:02;;;;;;;3.92;2.80;;;17.80;70.00;;;;;;6184601;23;20189;-83
2024/03/16 02:17:29;;;;;;;4.25;3.03;;;17.70;69.90;;;;;;6184370;23;20143;-84
2024/03/16 02:19:55;;;;;;;4.57;3.13;;;17.70;70.00;;;;;;6184551;23;20143;-84
2024/03/16 02:22:21;;;;;;;4.80;3.10;;;17.70;70.10;;;;;;6184604;23;20229;-84
2024/03/16 02:24:47;;;;;;;5.13;3.08;;;17.70;70.30;;;;;;6184450;23;20154;-84
2024/03/16 02:27:13;;;;;;;3.67;3.17;;;17.70;70.10;;;;;;6185779;23;20139;-84
2024/03/16 02:29:39;;;;;;;4.53;3.08;;;17.70;70.50;;;;;;6185836;23;20131;-84
2024/03/16 02:32:06;;;;;;;4.00;2.88;;;17.60;70.50;;;;;;6184071;23;20193;-83
2024/03/16 02:34:34;;;;;;;4.75;2.88;;;17.70;70.20;;;;;;6184297;23;20151;-83
2024/03/16 02:37:00;;;;;;;4.43;3.20;;;17.70;70.30;;;;;;6185822;23;20158;-83
2024/03/16 02:39:26;;;;;;;3.45;2.80;;;17.70;69.90;;;;;;6159441;23;20578;-84
2024/03/16 02:41:52;;;;;;;4.68;2.72;;;17.70;70.20;;;;;;6184047;23;20645;-83
2024/03/16 02:44:19;;;;;;;4.55;2.88;;;17.70;70.10;;;;;;6159538;23;20230;-84
2024/03/16 02:46:45;;;;;;;4.40;2.70;;;17.70;70.00;;;;;;6184237;23;20143;-84
2024/03/16 02:49:11;;;;;;;3.67;3.03;;;17.70;69.80;;;;;;6159254;23;20494;-84
2024/03/16 02:51:37;;;;;;;4.18;3.08;;;17.70;70.90;;;;;;6184202;23;20165;-84
2024/03/16 02:54:04;;;;;;;3.33;2.78;;;17.70;70.00;;;;;;6183616;23;20147;-84
2024/03/16 02:56:31;;;;;;;4.68;2.92;;;17.70;70.10;;;;;;6184336;23;20221;-84
2024/03/16 02:58:57;;;;;;;3.63;2.90;;;17.70;70.20;;;;;;6184027;23;20158;-84
2024/03/16 03:01:23;;;;;;;4.28;2.92;;;17.70;70.20;;;;;;6184480;23;20190;-84
2024/03/16 03:03:49;;;;;;;5.25;2.97;;;17.60;70.20;;;;;;6208952;23;20150;-84
2024/03/16 03:06:15;;;;;;;3.78;2.90;;;17.70;70.20;;;;;;6183844;23;20150;-84
2024/03/16 03:08:40;;;;;;;3.70;2.78;;;17.70;70.20;;;;;;6184359;23;20635;-84
2024/03/16 03:11:08;;;;;;;3.67;2.63;;;17.60;70.00;;;;;;6183843;23;20151;-84
2024/03/16 03:13:34;;;;;;;5.55;3.00;;;17.70;70.10;;;;;;6133781;23;20221;-83
2024/03/16 03:16:00;;;;;;;4.65;2.80;;;17.60;70.00;;;;;;6209000;23;20151;-84
2024/03/16 03:18:26;;;;;;;4.22;2.90;;;17.70;70.10;;;;;;6158857;23;20176;-84
2024/03/16 03:20:53;;;;;;;4.95;3.05;;;17.70;70.20;;;;;;6208865;23;20586;-83
2024/03/16 03:23:20;;;;;;;3.28;2.80;;;17.60;70.50;;;;;;6183781;23;20518;-84
2024/03/16 03:25:48;;;;;;;4.50;3.00;;;17.60;70.10;;;;;;6158131;23;20175;-84
2024/03/16 03:28:14;;;;;;;3.83;2.92;;;17.60;70.30;;;;;;6183888;23;20242;-84
2024/03/16 03:30:41;;;;;;;3.97;3.13;;;17.70;70.00;;;;;;6185118;23;20574;-83
2024/03/16 03:33:08;;;;;;;3.88;3.10;;;17.70;70.20;;;;;;6158782;23;20210;-84
2024/03/16 03:35:35;;;;;;;4.18;2.92;;;17.60;70.00;;;;;;6183901;23;20155;-84
2024/03/16 03:38:02;;;;;;;3.67;2.70;;;17.60;70.20;;;;;;6158996;23;20167;-83
2024/03/16 03:40:28;;;;;;;4.03;3.13;;;17.70;70.40;;;;;;6183787;23;20224;-84
2024/03/16 03:42:59;;;;;;;4.38;3.13;;;17.60;70.00;;;;;;6158575;23;20221;-84
2024/03/16 03:45:38;;;;;;;4.22;2.97;;;17.70;69.90;;;;;;6183830;23;20138;-84
2024/03/16 03:50:44;;;;;;;4.53;3.10;;;17.70;69.90;;;;;;6183937;23;20570;-84
2024/03/16 03:53:10;;;;;;;3.60;3.00;;;17.70;69.90;;;;;;6158170;23;20204;-84
2024/03/16 03:55:35;;;;;;;3.83;2.80;;;17.60;70.10;;;;;;6185254;23;20147;-84
2024/03/16 03:58:02;;;;;;;4.25;2.80;;;17.60;69.90;;;;;;6183590;23;20631;-84
2024/03/16 04:00:28;;;;;;;4.15;3.05;;;17.70;70.60;;;;;;6183593;23;20150;-84
2024/03/16 04:02:54;;;;;;;3.78;2.85;;;17.70;70.00;;;;;;6183736;23;20492;-84
2024/03/16 04:05:20;;;;;;;4.43;3.03;;;17.60;71.10;;;;;;6185294;23;20251;-84
2024/03/16 04:07:45;;;;;;;3.78;2.95;;;17.60;69.80;;;;;;6183441;23;20505;-84
2024/03/16 04:10:11;;;;;;;4.78;3.25;;;17.60;70.40;;;;;;6183701;23;20159;-84
2024/03/16 04:12:37;;;;;;;4.43;2.90;;;17.60;70.20;;;;;;6208574;23;20366;-84
2024/03/16 04:15:03;;;;;;;4.65;3.17;;;17.60;70.10;;;;;;6183632;23;20566;-83
2024/03/16 04:17:29;;;;;;;4.03;2.95;;;17.60;70.50;;;;;;6158696;23;20147;-83
2024/03/16 04:19:55;;;;;;;4.60;3.08;;;17.60;70.20;;;;;;6183465;23;20138;-84
2024/03/16 04:22:21;;;;;;;4.18;2.72;;;17.60;70.30;;;;;;6185410;23;20145;-84
2024/03/16 04:24:47;;;;;;;3.92;2.95;;;17.70;70.30;;;;;;6184935;23;20209;-84
2024/03/16 04:27:13;;;;;;;4.13;2.80;;;17.70;70.30;;;;;;6184403;23;20162;-84
2024/03/16 04:29:39;;;;;;;4.75;3.00;;;17.60;70.20;;;;;;6186907;23;20585;-84
2024/03/16 04:32:05;;;;;;;4.03;3.10;;;17.60;70.00;;;;;;6185700;23;20182;-83
2024/03/16 04:34:31;;;;;;;4.20;3.03;;;17.60;70.00;;;;;;6160720;23;20154;-84
2024/03/16 04:36:58;;;;;;;4.85;3.10;;;17.60;70.00;;;;;;6185362;23;20458;-84
2024/03/16 04:39:25;;;;;;;4.65;3.20;;;17.60;70.30;;;;;;6185528;23;20593;-84
2024/03/16 04:41:52;;;;;;;3.92;2.80;;;17.60;70.20;;;;;;6185222;23;20151;-83
2024/03/16 04:44:18;;;;;;;4.50;2.75;;;17.60;70.10;;;;;;6185531;23;20159;-83
2024/03/16 04:46:44;;;;;;;4.20;3.15;;;17.60;70.10;;;;;;6185388;23;20151;-85
2024/03/16 04:49:10;;;;;;;3.92;2.90;;;17.60;70.40;;;;;;6185237;23;20163;-84
2024/03/16 04:51:36;;;;;;;4.13;3.10;;;17.60;70.20;;;;;;6185344;23;20253;-84
2024/03/16 04:54:02;;;;;;;4.07;3.08;;;17.60;70.20;;;;;;6159452;23;20156;-84
2024/03/16 04:56:28;;;;;;;5.07;2.88;;;17.60;70.20;;;;;;6185355;23;20175;-84
2024/03/16 04:58:54;;;;;;;4.57;3.08;;;17.60;70.40;;;;;;6185272;23;20220;-84
2024/03/16 05:01:20;;;;;;;3.92;3.03;;;17.50;70.20;;;;;;6160349;23;20230;-84
2024/03/16 05:03:49;;;;;;;4.35;3.00;;;17.50;70.30;;;;;;6185605;23;20142;-84
2024/03/16 05:06:16;;;;;;;3.40;2.85;;;17.50;70.10;;;;;;6159267;23;20241;-84
2024/03/16 05:08:42;;;;;;;3.45;2.90;;;17.60;70.20;;;;;;6159420;23;20191;-84
2024/03/16 05:11:09;;;;;;;3.97;3.03;;;17.60;70.30;;;;;;6185540;23;20585;-84
2024/03/16 05:13:35;;;;;;;4.80;3.28;;;17.60;70.20;;;;;;6185166;23;20185;-83
2024/03/16 05:16:08;;;;;;;4.82;3.40;;;17.60;70.00;;;;;;6185097;23;20151;-83
2024/03/16 05:18:34;;;;;;;3.85;3.00;;;17.60;70.10;;;;;;6186382;23;20146;-84
2024/03/16 05:21:00;;;;;;;4.18;2.90;;;17.60;70.20;;;;;;6185075;23;20166;-84
2024/03/16 05:23:26;;;;;;;3.60;2.83;;;17.60;70.50;;;;;;6185130;23;20131;-83
2024/03/16 05:25:54;;;;;;;3.45;2.90;;;17.60;70.80;;;;;;6160103;23;20597;-84
2024/03/16 05:28:20;;;;;;;4.07;2.83;;;17.50;70.50;;;;;;6185023;23;20606;-84
2024/03/16 05:30:50;;;;;;;4.45;3.08;;;17.60;70.50;;;;;;6184880;23;20156;-83
2024/03/16 05:33:18;;;;;;;4.60;3.35;;;17.60;70.60;;;;;;6185100;23;20625;-84
2024/03/16 05:35:44;;;;;;;3.88;2.90;;;17.50;70.70;;;;;;6186491;23;20138;-84
2024/03/16 05:38:10;;;;;;;4.00;2.80;;;17.50;70.50;;;;;;6184537;23;20135;-84
2024/03/16 05:40:41;;;;;;;3.40;2.70;;;17.50;70.60;;;;;;6184897;23;20565;-84
2024/03/16 05:43:07;;;;;;;3.50;2.75;;;17.50;70.50;;;;;;6209697;23;20158;-83
2024/03/16 05:45:33;;;;;;;3.85;2.97;;;17.50;70.40;;;;;;6185139;23;20159;-83
2024/03/16 05:47:58;;;;;;;6.70;3.50;;;17.50;70.20;;;;;;6184826;23;20597;-84
2024/03/16 05:50:26;;;;;;;4.72;2.80;;;17.50;70.40;;;;;;6185097;23;20847;-84
2024/03/16 05:52:52;;;;;;;3.88;2.95;;;17.50;70.50;;;;;;6186227;23;20238;-84
2024/03/16 05:55:18;;;;;;;4.70;2.90;;;17.60;70.30;;;;;;6185195;23;20182;-83
2024/03/16 05:57:44;;;;;;;4.43;3.10;;;17.50;70.40;;;;;;6186184;23;20139;-84
2024/03/16 06:00:14;;;;;;;4.50;3.13;;;17.50;70.60;;;;;;6184839;23;20135;-84
2024/03/16 06:02:40;;;;;;;4.60;3.20;;;17.50;71.00;;;;;;6185183;23;20234;-84
2024/03/16 06:05:07;;;;;;;4.68;3.00;;;17.50;70.90;;;;;;6184860;23;20138;-84
2024/03/16 06:07:33;;;;;;;4.45;3.15;;;17.50;70.90;;;;;;6184803;23;20185;-83
2024/03/16 06:09:59;;;;;;;3.13;2.80;;;17.50;70.50;;;;;;6184786;23;20138;-84
2024/03/16 06:12:30;;;;;;;3.85;3.00;;;17.50;70.60;;;;;;6184680;23;20135;-83
2024/03/16 06:14:56;;;;;;;4.63;3.03;;;17.50;70.60;;;;;;6160980;23;20238;-84
2024/03/16 06:17:22;;;;;;;3.88;2.85;;;17.60;70.50;;;;;;6184302;23;20225;-84
2024/03/16 06:19:50;;;;;;;3.50;2.85;;;17.50;70.60;;;;;;6184477;23;20233;-84
2024/03/16 06:22:16;;;;;;;4.40;3.40;;;17.50;70.50;;;;;;6184654;23;20131;-83
2024/03/16 06:24:43;;;;;;;4.47;3.35;;;17.50;70.50;;;;;;6184580;23;20629;-84
2024/03/16 06:27:11;;;;;;;4.78;3.70;;;17.50;70.40;;;;;;6187180;23;20163;-84
2024/03/16 06:29:38;;;;;;;4.85;3.17;;;17.50;70.40;;;;;;6159754;23;20154;-85
2024/03/16 06:32:05;;;;;;;3.47;3.05;;;17.50;70.50;;;;;;6183961;23;20191;-84
2024/03/16 06:34:35;;;;;;;4.53;3.22;;;17.50;70.30;;;;;;6159582;23;20469;-84
2024/03/16 06:37:01;;;;;;;4.93;3.10;;;17.60;70.20;;;;;;6183508;23;20139;-84
2024/03/16 06:39:27;;;;;;;3.80;3.03;;;17.60;70.20;;;;;;6184134;23;20167;-84
2024/03/16 06:41:53;;;;;;;3.25;2.67;;;17.50;70.30;;;;;;6159385;23;20158;-84
2024/03/16 06:44:19;;;;;;;3.95;2.83;;;17.60;70.40;;;;;;6184198;23;20594;-83
2024/03/16 06:46:49;;;;;;;4.40;3.00;;;17.50;70.60;;;;;;6185807;23;20593;-84
2024/03/16 06:49:16;;;;;;;4.07;3.13;;;17.50;70.60;;;;;;6158472;23;20214;-84
2024/03/16 06:51:42;;;;;;;3.75;3.03;;;17.50;71.60;;;;;;6159563;23;20201;-83
2024/03/16 06:54:08;;;;;;;4.22;3.30;;;17.50;70.60;;;;;;6158455;23;20242;-84
2024/03/16 06:56:34;;;;;;;3.70;2.95;;;17.40;70.30;;;;;;6184109;23;20147;-84
2024/03/16 06:58:59;;;;;;;4.25;2.95;;;17.50;70.60;;;;;;6184067;23;20135;-84
2024/03/16 07:01:28;;;;;;;4.50;3.42;;;17.50;70.70;;;;;;6159633;23;20158;-84
2024/03/16 07:03:54;;;;;;;4.28;3.05;;;17.50;70.60;;;;;;6158087;23;20229;-84
2024/03/16 07:06:21;;;;;;;5.53;3.15;;;17.50;70.70;;;;;;6184084;23;20566;-83
2024/03/16 07:08:47;;;;;;;5.18;3.17;;;17.40;70.50;;;;;;6158360;23;20193;-83
2024/03/16 07:11:13;;;;;;;4.38;3.40;;;17.50;70.60;;;;;;6159176;23;20486;-84
2024/03/16 07:13:39;;;;;;;4.13;3.20;;;17.50;71.50;;;;;;6184007;23;20151;-84
2024/03/16 07:16:13;;;;;;;3.67;3.00;;;17.50;70.30;;;;;;6159275;23;20221;-84
2024/03/16 07:18:42;;;;;;;5.38;3.30;;;17.50;70.60;;;;;;6159405;23;20177;-84
2024/03/16 07:21:09;;;;;;;5.30;3.47;;;17.50;70.80;;;;;;6184095;23;20155;-84
2024/03/16 07:23:36;;;;;;;3.92;3.10;;;17.50;70.70;;;;;;6133933;23;20159;-84
2024/03/16 07:26:03;;;;;;;4.93;3.10;;;17.50;70.40;;;;;;6157940;23;20225;-84
2024/03/16 07:28:30;;;;;;;4.50;3.20;;;17.50;70.70;;;;;;6158074;23;20190;-84
2024/03/16 07:30:57;;;;;;;3.75;3.10;;;17.40;70.70;;;;;;6158097;23;20238;-84
2024/03/16 07:33:23;;;;;;;5.45;3.28;;;17.40;70.90;;;;;;6183605;23;20672;-84
2024/03/16 07:35:50;;;;;;;4.03;3.10;;;17.50;70.90;;;;;;6185635;23;20139;-84
2024/03/16 07:38:16;;;;;;;4.15;3.33;;;17.40;70.70;;;;;;6208742;23;20241;-84
2024/03/16 07:40:42;;;;;;;4.40;3.33;;;17.50;70.50;;;;;;6183727;23;20566;-85
2024/03/16 07:43:09;;;;;;;4.45;3.35;;;17.50;70.70;;;;;;6183607;23;20209;-84
2024/03/16 07:45:39;;;;;;;4.30;3.17;;;17.40;70.80;;;;;;6185474;23;20214;-83
2024/03/16 07:48:06;;;;;;;4.60;3.33;;;17.40;70.80;;;;;;6184226;23;20600;-84
2024/03/16 07:50:32;;;;;;;5.70;3.78;;;17.40;70.80;;;;;;6183464;23;20154;-84
2024/03/16 07:52:58;;;;;;;4.18;3.25;;;17.40;70.90;;;;;;6184194;23;20143;-84
2024/03/16 07:55:24;;;;;;;5.07;3.45;;;17.50;71.00;;;;;;6159172;23;20155;-84
2024/03/16 07:57:50;;;;;;;3.67;3.05;;;17.50;70.90;;;;;;6185038;23;20194;-84
2024/03/16 08:00:16;;;;;;;4.50;3.05;;;17.60;70.90;;;;;;6183819;23;20217;-85
2024/03/16 08:02:42;;;;;;;3.88;3.08;;;17.60;70.50;;;;;;6184067;23;20130;-84
2024/03/16 08:05:11;;;;;;;5.15;3.20;;;17.60;70.60;;;;;;6184805;23;20566;-84
2024/03/16 08:07:39;;;;;;;3.90;3.20;;;17.60;70.60;;;;;;6160712;23;20182;-84
2024/03/16 08:10:05;;;;;;;3.88;3.15;;;17.60;70.30;;;;;;6160921;23;20466;-84
2024/03/16 08:12:31;;;;;;;3.80;3.20;;;17.60;70.10;;;;;;6161391;23;20147;-84
2024/03/16 08:14:57;;;;;;;4.15;3.15;;;17.60;70.00;;;;;;6159287;23;20490;-84
2024/03/16 08:17:23;;;;;;;4.60;3.00;;;17.70;70.00;;;;;;6184092;23;20612;-84
2024/03/16 08:19:50;;;;;;;4.18;3.25;;;17.60;70.00;;;;;;6160080;23;20878;-84
2024/03/16 08:22:16;;;;;;;4.43;3.00;;;17.70;69.90;;;;;;6186557;23;20131;-84
2024/03/16 08:24:42;;;;;;;4.18;3.20;;;17.70;70.00;;;;;;6185488;23;20157;-85
2024/03/16 08:27:08;;;;;;;4.43;3.35;;;17.70;69.80;;;;;;6183654;23;20139;-86
2024/03/16 08:29:33;;;;;;;3.72;2.90;;;17.80;69.80;;;;;;6183597;23;20154;-84
2024/03/16 08:32:09;;;;;;;4.00;3.10;;;17.80;70.60;;;;;;6184375;23;20190;-85
2024/03/16 08:34:38;;;;;;;4.38;3.13;;;17.80;69.60;;;;;;6185017;23;20134;-85
2024/03/16 08:37:22;;;;;;;;;;;;;;;;;;;;;
2024/03/16 08:39:52;;;;;;;4.28;3.20;;;17.90;69.50;;;;;;6182222;23;20233;-84
2024/03/16 08:42:18;;;;;;;4.68;3.30;;;17.90;69.60;;;;;;6159534;23;20590;-85
2024/03/16 08:44:53;;;;;;;3.70;2.90;;;17.90;69.50;;;;;;6185751;23;20170;-85
2024/03/16 08:47:53;;;;;;;;;;;;;;;;;;;;;
2024/03/16 08:50:40;;;;;;;4.93;3.17;;;17.90;69.90;;;;;;6160542;23;20617;-85
2024/03/16 08:53:10;;;;;;;3.30;2.83;;;17.80;69.70;;;;;;6187113;23;20162;-85
2024/03/16 08:55:36;;;;;;;5.57;3.10;;;17.90;69.90;;;;;;6131090;23;20151;-84
2024/03/16 08:58:46;;;;;;;5.05;3.10;;;18.00;70.30;;;;;;6159130;23;20254;-86
2024/03/16 09:01:24;;;;;;;4.47;2.85;;;18.10;70.10;;;;;;6070006;23;20157;-84
2024/03/16 09:03:55;;;;;;;6.63;3.17;;;18.10;69.80;;;;;;6045698;23;20161;-82
2024/03/16 09:06:24;;;;;;;7.30;3.22;;;18.20;69.30;;;;;;6066406;23;20203;-83
2024/03/16 09:08:58;;;;;;;8.20;3.10;;;18.20;69.20;;;;;;6021633;23;20240;-84
2024/03/16 09:11:28;;;;;;;4.53;3.20;;;18.20;69.00;;;;;;6022083;23;20228;-83
2024/03/16 09:13:53;;;;;;;5.20;2.80;;;18.20;69.00;;;;;;6044431;23;20238;-83
2024/03/16 09:16:20;;;;;;;4.63;3.00;;;18.20;69.20;;;;;;6045477;23;20339;-83
2024/03/16 09:18:46;;;;;;;4.28;3.00;;;18.10;69.00;;;;;;6068843;23;20197;-83
2024/03/16 09:21:14;;;;;;;5.00;2.83;;;18.10;69.20;;;;;;6068527;23;20574;-84
2024/03/16 09:23:40;;;;;;;4.65;3.20;;;18.20;69.10;;;;;;6045037;23;20245;-83
2024/03/16 09:26:07;;;;;;;5.60;3.28;;;18.10;69.10;;;;;;6069009;23;20227;-83
2024/03/16 09:28:36;;;;;;;7.20;3.15;;;18.10;68.90;;;;;;6093780;23;20511;-83
2024/03/16 09:31:05;;;;;;;6.32;3.10;;;18.10;69.10;;;;;;6045697;23;20248;-83
2024/03/16 09:33:32;;;;;;;3.97;3.20;;;18.20;69.20;;;;;;6098638;23;20496;-84
2024/03/16 09:36:02;;;;;;;6.53;2.70;;;18.20;69.00;;;;;;6099488;23;20193;-83
2024/03/16 09:38:28;;;;;;;5.75;3.05;;;18.20;69.10;;;;;;6097131;23;20160;-83
2024/03/16 09:40:55;;;;;;;5.40;2.83;;;18.10;69.30;;;;;;6097951;23;20547;-82
2024/03/16 09:43:21;;;;;;;4.20;2.92;;;18.20;69.60;;;;;;6096326;23;20167;-83
2024/03/16 09:45:47;;;;;;;4.60;2.60;;;18.20;69.10;;;;;;6097922;23;20564;-83
2024/03/16 09:48:14;;;;;;;7.13;3.00;;;18.30;68.90;;;;;;6098921;23;20224;-81
2024/03/16 09:50:58;;;;;;;3.63;2.70;;;18.30;68.90;;;;;;6099398;23;20141;-84
2024/03/16 09:53:31;;;;;;;5.65;3.10;;;18.20;69.20;;;;;;6098239;23;20224;-84
2024/03/16 09:56:09;;;;;;;5.10;3.17;;;18.30;68.80;;;;;;6099995;23;20151;-85
2024/03/16 09:58:40;;;;;;;8.88;2.78;;;18.30;69.10;;;;;;6101034;23;20149;-83
2024/03/16 10:01:24;;;;;;;5.68;2.60;;;18.20;69.40;;;;;;6100351;23;20216;-84
2024/03/16 10:03:50;;;;;;;8.55;2.67;;;18.20;69.00;;;;;;6123123;23;20157;-83
2024/03/16 10:06:16;;;;;;;4.63;2.80;;;18.30;69.30;;;;;;6120186;23;20149;-81
2024/03/16 10:08:45;;;;;;;3.80;2.50;;;18.30;69.70;;;;;;6120622;23;20180;-82
2024/03/16 10:11:13;;;;;;;4.95;2.60;;;18.20;69.80;;;;;;6073103;23;20164;-83
2024/03/16 10:13:41;;;;;;;5.53;2.70;;;18.30;69.40;;;;;;6120644;23;20759;-83
2024/03/16 10:16:07;;;;;;;5.47;2.70;;;18.30;69.60;;;;;;6121047;23;20152;-84
2024/03/16 10:18:35;;;;;;;7.15;2.65;;;18.30;69.70;;;;;;6120214;23;20188;-83
2024/03/16 10:21:01;;;;;;;6.38;2.55;;;18.30;69.80;;;;;;6102730;23;20160;-83
2024/03/16 10:23:29;;;;;;;5.68;2.78;;;18.30;70.10;;;;;;6127160;23;20156;-84
2024/03/16 10:25:56;;;;;;;4.60;2.78;;;18.30;69.90;;;;;;6102710;23;20223;-84
2024/03/16 10:28:22;;;;;;;5.20;2.75;;;18.30;69.60;;;;;;6089179;23;20236;-84
2024/03/16 10:30:48;;;;;;;5.55;2.35;;;18.40;69.60;;;;;;6073020;23;20385;-84
2024/03/16 10:33:18;;;;;;;6.78;2.33;;;18.30;69.80;;;;;;6075061;23;20191;-84
2024/03/16 10:35:44;;;;;;;5.20;2.60;;;18.30;70.50;;;;;;6102187;23;20148;-84
2024/03/16 10:38:13;;;;;;;8.80;2.65;;;18.30;70.50;;;;;;6127197;23;20186;-84
2024/03/16 10:40:40;;;;;;;4.80;2.40;;;18.40;70.00;;;;;;6129917;23;20163;-84
2024/03/16 10:43:12;;;;;;;4.90;2.40;;;18.40;70.00;;;;;;6105390;23;20609;-84
2024/03/16 10:45:45;;;;;;;5.50;2.80;;;18.40;70.30;;;;;;6107165;23;20848;-84
2024/03/16 10:48:11;;;;;;;4.70;2.47;;;18.40;70.20;;;;;;6107938;23;20179;-80
2024/03/16 10:50:37;;;;;;;5.72;2.50;;;18.40;70.70;;;;;;6105899;23;20151;-82
2024/03/16 10:53:03;;;;;;;7.25;2.55;;;18.40;70.30;;;;;;6181793;23;20597;-81
2024/03/16 10:55:29;;;;;;;4.72;2.50;;;18.40;70.50;;;;;;6186587;23;20150;-82
2024/03/16 10:57:55;;;;;;;8.85;2.63;;;18.40;70.60;;;;;;6186975;23;20185;-83
2024/03/16 11:00:36;;;;;;;5.20;2.75;;;18.40;70.30;;;;;;6161073;23;20151;-82
2024/03/16 11:03:08;;;;;;;8.63;2.90;;;18.40;70.20;;;;;;6161157;23;20493;-82
2024/03/16 11:05:37;;;;;;;8.65;2.80;;;18.50;70.10;;;;;;6186067;23;20154;-82
2024/03/16 11:08:41;;;;;;;6.45;2.70;;;18.50;70.80;;;;;;6186968;23;20211;-82
2024/03/16 11:11:10;;;;;;;8.85;2.72;;;18.50;70.10;;;;;;6187543;23;20222;-82
2024/03/16 11:13:36;;;;;;;10.73;2.88;;;18.50;70.20;;;;;;6184562;23;20142;-82
2024/03/16 11:16:39;;;;;;;10.07;3.03;;;18.50;70.30;;;;;;6184607;23;20135;-82
2024/03/16 11:19:07;;;;;;;7.05;2.88;;;18.50;70.50;;;;;;6185872;23;20209;-83
2024/03/16 11:21:36;;;;;;;6.78;2.75;;;18.40;70.50;;;;;;6187423;23;20132;-83
2024/03/16 11:24:04;;;;;;;12.75;2.88;;;18.50;70.50;;;;;;6185354;23;20189;-82
2024/03/16 11:26:36;;;;;;;11.55;2.72;;;18.50;70.70;;;;;;6160000;23;20158;-82
2024/03/16 11:29:04;;;;;;;12.63;2.50;;;18.50;70.50;;;;;;6157745;23;20198;-83
2024/03/16 11:31:39;;;;;;;13.32;2.97;;;18.60;70.30;;;;;;6158713;23;20277;-82
2024/03/16 11:34:09;;;;;;;6.50;2.33;;;18.60;70.50;;;;;;6161514;23;20150;-83
2024/03/16 11:36:38;;;;;;;14.55;2.60;;;18.60;70.40;;;;;;6184500;23;20253;-83
2024/03/16 11:39:11;;;;;;;10.38;2.70;;;18.60;70.60;;;;;;6184931;23;20181;-83
2024/03/16 11:41:42;;;;;;;12.35;2.80;;;18.60;70.90;;;;;;6184689;23;20177;-83
2024/03/16 11:44:16;;;;;;;11.10;2.80;;;18.50;70.90;;;;;;6184227;23;20601;-83
2024/03/16 11:46:44;;;;;;;6.45;2.78;;;18.50;71.00;;;;;;6184128;23;20190;-83
2024/03/16 11:49:11;;;;;;;7.68;2.50;;;18.60;71.80;;;;;;6209357;23;20232;-82
2024/03/16 11:51:37;;;;;;;6.78;2.20;;;18.50;71.10;;;;;;6184873;23;20464;-82
2024/03/16 11:54:04;;;;;;;8.80;2.60;;;18.60;71.00;;;;;;6183982;23;20146;-82
2024/03/16 11:56:32;;;;;;;5.97;2.38;;;18.60;70.60;;;;;;6159614;23;20143;-81
2024/03/16 11:59:01;;;;;;;7.32;2.33;;;18.60;70.70;;;;;;6184657;23;20150;-83
2024/03/16 12:01:27;;;;;;;6.20;2.30;;;18.60;70.80;;;;;;6185040;23;20177;-83
2024/03/16 12:03:52;;;;;;;7.78;2.28;;;18.60;70.40;;;;;;6184507;23;20551;-82
2024/03/16 12:06:18;;;;;;;5.78;2.38;;;18.60;71.10;;;;;;6184888;23;20297;-83
2024/03/16 12:08:45;;;;;;;7.53;2.28;;;18.60;71.10;;;;;;6185094;23;20194;-81
2024/03/16 12:11:15;;;;;;;9.30;2.67;;;18.60;71.00;;;;;;6159377;23;20143;-82
2024/03/16 12:13:41;;;;;;;8.40;2.25;;;18.60;71.50;;;;;;6184058;23;20147;-83
2024/03/16 12:16:08;;;;;;;7.75;2.33;;;18.60;71.80;;;;;;6185845;23;20205;-82
2024/03/16 12:18:34;;;;;;;4.85;2.50;;;18.60;71.90;;;;;;6184047;23;20139;-82
2024/03/16 12:21:03;;;;;;;11.38;2.20;;;18.60;71.70;;;;;;6183976;23;20230;-83
2024/03/16 12:23:29;;;;;;;8.95;2.45;;;18.60;71.20;;;;;;6185821;23;20227;-83
2024/03/16 12:25:58;;;;;;;6.20;2.10;;;18.60;71.70;;;;;;6159539;23;20490;-82
2024/03/16 12:28:24;;;;;;;4.88;2.13;;;18.60;70.70;;;;;;6159761;23;20174;-81
2024/03/16 12:30:50;;;;;;;2.33;1.77;;;18.60;71.30;;;;;;6184195;23;20124;-84
2024/03/16 12:33:27;;;;;;;10.85;2.38;;;18.60;70.90;;;;;;6159045;23;20190;-83
2024/03/16 12:35:53;;;;;;;5.03;2.10;;;18.60;71.30;;;;;;6183721;23;20150;-82
2024/03/16 12:38:19;;;;;;;4.30;1.95;;;18.70;71.00;;;;;;6158493;23;20162;-82
2024/03/16 12:40:45;;;;;;;5.18;2.00;;;18.60;71.10;;;;;;6183548;23;20652;-83
2024/03/16 12:43:11;;;;;;;4.90;1.80;;;18.70;71.10;;;;;;6183342;23;20211;-83
2024/03/16 12:45:37;;;;;;;6.35;1.98;;;18.60;70.50;;;;;;6159131;23;20517;-82
2024/03/16 12:48:03;;;;;;;4.97;2.00;;;18.60;71.10;;;;;;6184559;23;20189;-83
2024/03/16 12:50:31;;;;;;;3.20;1.75;;;18.70;71.00;;;;;;6187262;23;20139;-83
2024/03/16 12:53:03;;;;;;;4.38;1.90;;;18.70;70.70;;;;;;6186227;23;20586;-84